sensor_id;sensor_type;location;lat;lon;timestamp;P1;durP1;ratioP1;P2;durP2;ratioP2
42124;SDS011;27787;44.594;11.046;2023-03-14T00:01:53;25.60;;;11.05;;
42124;SDS011;27787;44.594;11.046;2023-03-14T00:04:37;20.25;;;10.35;;
42124;SDS011;27787;44.594;11.046;2023-03-14T00:07:23;18.90;;;11.13;;
42124;SDS011;27787;44.594;11.046;2023-03-14T00:10:09;25.85;;;10.35;;
42124;SDS011;27787;44.594;11.046;2023-03-14T00:12:56;19.42;;;10.02;;
42124;SDS011;27787;44.594;11.046;2023-03-14T00:15:41;17.23;;;10.23;;
42124;SDS011;27787;44.594;11.046;2023-03-14T00:18:26;22.98;;;11.52;;
42124;SDS011;27787;44.594;11.046;2023-03-14T00:21:12;23.30;;;11.65;;
42124;SDS011;27787;44.594;11.046;2023-03-14T00:23:56;21.50;;;11.77;;
42124;SDS011;27787;44.594;11.046;2023-03-14T00:26:41;20.25;;;10.70;;
42124;SDS011;27787;44.594;11.046;2023-03-14T00:29:28;16.40;;;10.45;;
42124;SDS011;27787;44.594;11.046;2023-03-14T00:32:13;20.85;;;10.50;;
42124;SDS011;27787;44.594;11.046;2023-03-14T00:34:58;16.52;;;10.38;;
42124;SDS011;27787;44.594;11.046;2023-03-14T00:37:44;22.00;;;11.50;;
42124;SDS011;27787;44.594;11.046;2023-03-14T00:40:29;25.17;;;12.55;;
42124;SDS011;27787;44.594;11.046;2023-03-14T00:43:15;21.02;;;12.55;;
42124;SDS011;27787;44.594;11.046;2023-03-14T00:46:05;20.73;;;12.27;;
42124;SDS011;27787;44.594;11.046;2023-03-14T00:48:52;19.33;;;12.18;;
42124;SDS011;27787;44.594;11.046;2023-03-14T00:51:42;20.25;;;12.00;;
42124;SDS011;27787;44.594;11.046;2023-03-14T00:54:26;27.85;;;13.18;;
42124;SDS011;27787;44.594;11.046;2023-03-14T00:57:10;18.60;;;11.27;;
42124;SDS011;27787;44.594;11.046;2023-03-14T00:59:54;24.65;;;12.38;;
42124;SDS011;27787;44.594;11.046;2023-03-14T01:02:39;26.08;;;13.40;;
42124;SDS011;27787;44.594;11.046;2023-03-14T01:05:23;20.00;;;13.13;;
42124;SDS011;27787;44.594;11.046;2023-03-14T01:08:08;22.52;;;12.20;;
42124;SDS011;27787;44.594;11.046;2023-03-14T01:10:54;25.45;;;12.18;;
42124;SDS011;27787;44.594;11.046;2023-03-14T01:13:39;27.02;;;13.10;;
42124;SDS011;27787;44.594;11.046;2023-03-14T01:16:24;22.75;;;12.23;;
42124;SDS011;27787;44.594;11.046;2023-03-14T01:19:10;19.15;;;11.98;;
42124;SDS011;27787;44.594;11.046;2023-03-14T01:21:54;22.73;;;12.15;;
42124;SDS011;27787;44.594;11.046;2023-03-14T01:24:39;23.30;;;12.48;;
42124;SDS011;27787;44.594;11.046;2023-03-14T01:27:23;21.60;;;12.03;;
42124;SDS011;27787;44.594;11.046;2023-03-14T01:30:08;22.20;;;13.52;;
42124;SDS011;27787;44.594;11.046;2023-03-14T01:32:54;20.90;;;12.15;;
42124;SDS011;27787;44.594;11.046;2023-03-14T01:35:39;23.98;;;13.13;;
42124;SDS011;27787;44.594;11.046;2023-03-14T01:38:37;19.83;;;12.10;;
42124;SDS011;27787;44.594;11.046;2023-03-14T01:41:36;24.73;;;12.15;;
42124;SDS011;27787;44.594;11.046;2023-03-14T01:44:27;22.55;;;11.95;;
42124;SDS011;27787;44.594;11.046;2023-03-14T01:47:13;23.70;;;12.05;;
42124;SDS011;27787;44.594;11.046;2023-03-14T01:50:06;25.60;;;12.15;;
42124;SDS011;27787;44.594;11.046;2023-03-14T01:52:56;17.73;;;10.75;;
42124;SDS011;27787;44.594;11.046;2023-03-14T01:55:41;22.55;;;12.30;;
42124;SDS011;27787;44.594;11.046;2023-03-14T01:58:27;18.73;;;11.25;;
42124;SDS011;27787;44.594;11.046;2023-03-14T02:01:15;23.73;;;12.13;;
42124;SDS011;27787;44.594;11.046;2023-03-14T02:04:03;31.15;;;12.32;;
42124;SDS011;27787;44.594;11.046;2023-03-14T02:07:26;18.40;;;10.77;;
42124;SDS011;27787;44.594;11.046;2023-03-14T02:10:17;24.02;;;13.10;;
42124;SDS011;27787;44.594;11.046;2023-03-14T02:13:04;23.23;;;11.77;;
42124;SDS011;27787;44.594;11.046;2023-03-14T02:16:08;22.73;;;11.45;;
42124;SDS011;27787;44.594;11.046;2023-03-14T02:19:02;25.17;;;11.82;;
42124;SDS011;27787;44.594;11.046;2023-03-14T02:22:09;23.20;;;12.05;;
42124;SDS011;27787;44.594;11.046;2023-03-14T02:28:11;20.73;;;11.18;;
42124;SDS011;27787;44.594;11.046;2023-03-14T02:30:57;17.98;;;11.00;;
42124;SDS011;27787;44.594;11.046;2023-03-14T02:33:42;21.80;;;11.55;;
42124;SDS011;27787;44.594;11.046;2023-03-14T02:36:26;21.92;;;11.77;;
42124;SDS011;27787;44.594;11.046;2023-03-14T02:39:13;18.60;;;11.13;;
42124;SDS011;27787;44.594;11.046;2023-03-14T02:42:04;21.40;;;11.10;;
42124;SDS011;27787;44.594;11.046;2023-03-14T02:45:37;20.95;;;10.75;;
42124;SDS011;27787;44.594;11.046;2023-03-14T02:47:57;21.08;;;10.75;;
42124;SDS011;27787;44.594;11.046;2023-03-14T02:50:49;23.75;;;11.15;;
42124;SDS011;27787;44.594;11.046;2023-03-14T02:53:36;18.48;;;10.50;;
42124;SDS011;27787;44.594;11.046;2023-03-14T02:56:27;14.90;;;10.43;;
42124;SDS011;27787;44.594;11.046;2023-03-14T02:59:13;19.60;;;9.93;;
42124;SDS011;27787;44.594;11.046;2023-03-14T03:02:05;17.55;;;11.43;;
42124;SDS011;27787;44.594;11.046;2023-03-14T03:07:35;18.50;;;10.60;;
42124;SDS011;27787;44.594;11.046;2023-03-14T03:10:26;24.67;;;10.82;;
42124;SDS011;27787;44.594;11.046;2023-03-14T03:13:12;22.77;;;11.57;;
42124;SDS011;27787;44.594;11.046;2023-03-14T03:16:03;23.35;;;11.30;;
42124;SDS011;27787;44.594;11.046;2023-03-14T03:19:11;21.63;;;11.50;;
42124;SDS011;27787;44.594;11.046;2023-03-14T03:22:05;19.50;;;11.20;;
42124;SDS011;27787;44.594;11.046;2023-03-14T03:24:52;31.50;;;12.95;;
42124;SDS011;27787;44.594;11.046;2023-03-14T03:27:38;20.13;;;11.70;;
42124;SDS011;27787;44.594;11.046;2023-03-14T03:30:38;21.05;;;10.98;;
42124;SDS011;27787;44.594;11.046;2023-03-14T03:33:22;21.42;;;11.57;;
42124;SDS011;27787;44.594;11.046;2023-03-14T03:36:13;26.92;;;11.35;;
42124;SDS011;27787;44.594;11.046;2023-03-14T03:39:01;23.48;;;12.10;;
42124;SDS011;27787;44.594;11.046;2023-03-14T03:41:56;23.35;;;11.88;;
42124;SDS011;27787;44.594;11.046;2023-03-14T03:44:59;24.45;;;12.07;;
42124;SDS011;27787;44.594;11.046;2023-03-14T03:48:01;31.00;;;14.13;;
42124;SDS011;27787;44.594;11.046;2023-03-14T03:50:46;27.40;;;14.93;;
42124;SDS011;27787;44.594;11.046;2023-03-14T03:53:36;38.22;;;15.50;;
42124;SDS011;27787;44.594;11.046;2023-03-14T03:56:39;28.02;;;13.85;;
42124;SDS011;27787;44.594;11.046;2023-03-14T03:59:27;31.17;;;14.80;;
42124;SDS011;27787;44.594;11.046;2023-03-14T04:02:17;27.73;;;14.52;;
42124;SDS011;27787;44.594;11.046;2023-03-14T04:05:02;26.85;;;14.73;;
42124;SDS011;27787;44.594;11.046;2023-03-14T04:07:47;33.30;;;14.98;;
42124;SDS011;27787;44.594;11.046;2023-03-14T04:10:37;24.30;;;13.82;;
42124;SDS011;27787;44.594;11.046;2023-03-14T04:13:38;25.00;;;13.73;;
42124;SDS011;27787;44.594;11.046;2023-03-14T04:16:30;23.77;;;12.85;;
42124;SDS011;27787;44.594;11.046;2023-03-14T04:19:35;24.40;;;13.27;;
42124;SDS011;27787;44.594;11.046;2023-03-14T04:22:42;30.17;;;13.30;;
42124;SDS011;27787;44.594;11.046;2023-03-14T04:25:50;25.00;;;13.55;;
42124;SDS011;27787;44.594;11.046;2023-03-14T04:28:43;25.17;;;13.68;;
42124;SDS011;27787;44.594;11.046;2023-03-14T04:31:30;25.30;;;14.27;;
42124;SDS011;27787;44.594;11.046;2023-03-14T04:34:15;29.67;;;14.80;;
42124;SDS011;27787;44.594;11.046;2023-03-14T04:37:08;25.98;;;13.77;;
42124;SDS011;27787;44.594;11.046;2023-03-14T04:39:57;25.95;;;14.77;;
42124;SDS011;27787;44.594;11.046;2023-03-14T04:42:44;24.88;;;13.88;;
42124;SDS011;27787;44.594;11.046;2023-03-14T04:45:28;26.80;;;14.57;;
42124;SDS011;27787;44.594;11.046;2023-03-14T04:48:23;29.05;;;14.68;;
42124;SDS011;27787;44.594;11.046;2023-03-14T04:51:12;28.58;;;14.13;;
42124;SDS011;27787;44.594;11.046;2023-03-14T04:53:58;30.48;;;14.88;;
42124;SDS011;27787;44.594;11.046;2023-03-14T04:57:07;26.02;;;15.00;;
42124;SDS011;27787;44.594;11.046;2023-03-14T05:00:02;33.55;;;15.70;;
42124;SDS011;27787;44.594;11.046;2023-03-14T05:03:06;28.90;;;15.50;;
42124;SDS011;27787;44.594;11.046;2023-03-14T05:06:05;36.50;;;14.95;;
42124;SDS011;27787;44.594;11.046;2023-03-14T05:09:17;34.85;;;17.55;;
42124;SDS011;27787;44.594;11.046;2023-03-14T05:12:37;30.88;;;15.80;;
42124;SDS011;27787;44.594;11.046;2023-03-14T05:16:04;41.10;;;18.75;;
42124;SDS011;27787;44.594;11.046;2023-03-14T05:19:02;41.95;;;18.83;;
42124;SDS011;27787;44.594;11.046;2023-03-14T05:22:29;38.40;;;19.25;;
42124;SDS011;27787;44.594;11.046;2023-03-14T05:25:35;36.67;;;16.88;;
42124;SDS011;27787;44.594;11.046;2023-03-14T05:28:46;38.28;;;17.40;;
42124;SDS011;27787;44.594;11.046;2023-03-14T05:31:45;36.50;;;18.70;;
42124;SDS011;27787;44.594;11.046;2023-03-14T05:34:49;36.97;;;17.10;;
42124;SDS011;27787;44.594;11.046;2023-03-14T05:37:57;35.88;;;16.60;;
42124;SDS011;27787;44.594;11.046;2023-03-14T05:40:50;36.53;;;16.75;;
42124;SDS011;27787;44.594;11.046;2023-03-14T05:43:55;31.30;;;14.82;;
42124;SDS011;27787;44.594;11.046;2023-03-14T05:46:58;23.30;;;12.38;;
42124;SDS011;27787;44.594;11.046;2023-03-14T05:50:02;22.65;;;11.95;;
42124;SDS011;27787;44.594;11.046;2023-03-14T05:53:14;27.65;;;11.45;;
42124;SDS011;27787;44.594;11.046;2023-03-14T05:56:19;17.42;;;7.68;;
42124;SDS011;27787;44.594;11.046;2023-03-14T05:59:25;21.60;;;9.00;;
42124;SDS011;27787;44.594;11.046;2023-03-14T06:02:29;18.50;;;8.52;;
42124;SDS011;27787;44.594;11.046;2023-03-14T06:05:22;18.67;;;7.25;;
42124;SDS011;27787;44.594;11.046;2023-03-14T06:08:10;14.15;;;8.60;;
42124;SDS011;27787;44.594;11.046;2023-03-14T06:10:57;14.35;;;4.55;;
42124;SDS011;27787;44.594;11.046;2023-03-14T06:13:47;16.70;;;8.25;;
42124;SDS011;27787;44.594;11.046;2023-03-14T06:16:32;17.33;;;9.45;;
42124;SDS011;27787;44.594;11.046;2023-03-14T06:19:17;15.95;;;9.45;;
42124;SDS011;27787;44.594;11.046;2023-03-14T06:22:02;15.88;;;8.45;;
42124;SDS011;27787;44.594;11.046;2023-03-14T06:24:48;17.88;;;8.23;;
42124;SDS011;27787;44.594;11.046;2023-03-14T06:27:34;19.05;;;8.60;;
42124;SDS011;27787;44.594;11.046;2023-03-14T06:30:19;16.75;;;8.80;;
42124;SDS011;27787;44.594;11.046;2023-03-14T06:33:03;15.73;;;8.50;;
42124;SDS011;27787;44.594;11.046;2023-03-14T06:35:48;16.17;;;8.52;;
42124;SDS011;27787;44.594;11.046;2023-03-14T06:38:32;13.43;;;8.05;;
42124;SDS011;27787;44.594;11.046;2023-03-14T06:41:17;16.25;;;8.93;;
42124;SDS011;27787;44.594;11.046;2023-03-14T06:44:04;17.15;;;9.07;;
42124;SDS011;27787;44.594;11.046;2023-03-14T06:46:49;14.55;;;8.38;;
42124;SDS011;27787;44.594;11.046;2023-03-14T06:49:33;17.77;;;7.65;;
42124;SDS011;27787;44.594;11.046;2023-03-14T06:52:20;20.08;;;7.85;;
42124;SDS011;27787;44.594;11.046;2023-03-14T06:55:07;18.13;;;8.50;;
42124;SDS011;27787;44.594;11.046;2023-03-14T06:57:56;21.95;;;8.52;;
42124;SDS011;27787;44.594;11.046;2023-03-14T07:00:43;17.70;;;8.43;;
42124;SDS011;27787;44.594;11.046;2023-03-14T07:03:30;16.58;;;8.30;;
42124;SDS011;27787;44.594;11.046;2023-03-14T07:06:16;20.52;;;8.98;;
42124;SDS011;27787;44.594;11.046;2023-03-14T07:09:02;21.60;;;10.40;;
42124;SDS011;27787;44.594;11.046;2023-03-14T07:11:46;31.33;;;13.07;;
42124;SDS011;27787;44.594;11.046;2023-03-14T07:14:31;34.37;;;14.83;;
42124;SDS011;27787;44.594;11.046;2023-03-14T07:17:17;31.27;;;15.30;;
42124;SDS011;27787;44.594;11.046;2023-03-14T07:20:01;29.30;;;15.50;;
42124;SDS011;27787;44.594;11.046;2023-03-14T07:22:47;29.95;;;15.13;;
42124;SDS011;27787;44.594;11.046;2023-03-14T07:25:37;35.00;;;17.33;;
42124;SDS011;27787;44.594;11.046;2023-03-14T07:28:21;39.72;;;19.13;;
42124;SDS011;27787;44.594;11.046;2023-03-14T07:31:13;39.28;;;19.92;;
42124;SDS011;27787;44.594;11.046;2023-03-14T07:33:58;37.42;;;18.65;;
42124;SDS011;27787;44.594;11.046;2023-03-14T07:36:47;34.47;;;19.30;;
42124;SDS011;27787;44.594;11.046;2023-03-14T07:39:40;32.10;;;16.98;;
42124;SDS011;27787;44.594;11.046;2023-03-14T07:42:34;37.78;;;17.55;;
42124;SDS011;27787;44.594;11.046;2023-03-14T07:45:34;44.47;;;19.52;;
42124;SDS011;27787;44.594;11.046;2023-03-14T07:48:19;40.70;;;20.63;;
42124;SDS011;27787;44.594;11.046;2023-03-14T07:51:03;39.83;;;21.27;;
42124;SDS011;27787;44.594;11.046;2023-03-14T07:53:48;37.60;;;19.50;;
42124;SDS011;27787;44.594;11.046;2023-03-14T07:56:35;37.05;;;18.85;;
42124;SDS011;27787;44.594;11.046;2023-03-14T07:59:21;38.58;;;19.50;;
42124;SDS011;27787;44.594;11.046;2023-03-14T08:02:05;34.22;;;17.90;;
42124;SDS011;27787;44.594;11.046;2023-03-14T08:04:54;33.22;;;18.40;;
42124;SDS011;27787;44.594;11.046;2023-03-14T08:07:38;33.92;;;17.95;;
42124;SDS011;27787;44.594;11.046;2023-03-14T08:10:23;32.20;;;17.05;;
42124;SDS011;27787;44.594;11.046;2023-03-14T08:13:08;34.58;;;16.48;;
42124;SDS011;27787;44.594;11.046;2023-03-14T08:15:52;34.45;;;17.55;;
42124;SDS011;27787;44.594;11.046;2023-03-14T08:18:36;29.83;;;15.05;;
42124;SDS011;27787;44.594;11.046;2023-03-14T08:21:20;25.58;;;13.90;;
42124;SDS011;27787;44.594;11.046;2023-03-14T08:24:04;31.08;;;14.98;;
42124;SDS011;27787;44.594;11.046;2023-03-14T08:26:48;26.55;;;14.88;;
42124;SDS011;27787;44.594;11.046;2023-03-14T08:29:32;31.80;;;15.73;;
42124;SDS011;27787;44.594;11.046;2023-03-14T08:32:17;23.60;;;13.30;;
42124;SDS011;27787;44.594;11.046;2023-03-14T08:35:01;32.22;;;14.45;;
42124;SDS011;27787;44.594;11.046;2023-03-14T08:37:46;26.90;;;14.88;;
42124;SDS011;27787;44.594;11.046;2023-03-14T08:40:30;26.10;;;13.20;;
42124;SDS011;27787;44.594;11.046;2023-03-14T08:43:14;26.17;;;12.07;;
42124;SDS011;27787;44.594;11.046;2023-03-14T08:45:59;23.80;;;12.48;;
42124;SDS011;27787;44.594;11.046;2023-03-14T08:48:44;25.98;;;12.98;;
42124;SDS011;27787;44.594;11.046;2023-03-14T08:51:28;21.75;;;12.70;;
42124;SDS011;27787;44.594;11.046;2023-03-14T08:54:13;25.10;;;13.38;;
42124;SDS011;27787;44.594;11.046;2023-03-14T08:56:58;26.38;;;12.95;;
42124;SDS011;27787;44.594;11.046;2023-03-14T08:59:42;29.50;;;12.85;;
42124;SDS011;27787;44.594;11.046;2023-03-14T09:02:27;21.73;;;12.45;;
42124;SDS011;27787;44.594;11.046;2023-03-14T09:05:11;26.42;;;12.40;;
42124;SDS011;27787;44.594;11.046;2023-03-14T09:07:55;19.10;;;10.90;;
42124;SDS011;27787;44.594;11.046;2023-03-14T09:10:39;24.30;;;9.13;;
42124;SDS011;27787;44.594;11.046;2023-03-14T09:13:23;17.60;;;8.65;;
42124;SDS011;27787;44.594;11.046;2023-03-14T09:16:07;12.90;;;6.97;;
42124;SDS011;27787;44.594;11.046;2023-03-14T09:18:52;13.68;;;6.47;;
42124;SDS011;27787;44.594;11.046;2023-03-14T09:21:38;17.10;;;7.25;;
42124;SDS011;27787;44.594;11.046;2023-03-14T09:24:22;16.25;;;6.45;;
42124;SDS011;27787;44.594;11.046;2023-03-14T09:27:06;9.60;;;5.75;;
42124;SDS011;27787;44.594;11.046;2023-03-14T09:29:51;12.83;;;6.23;;
42124;SDS011;27787;44.594;11.046;2023-03-14T09:32:35;14.55;;;7.13;;
42124;SDS011;27787;44.594;11.046;2023-03-14T09:35:19;15.95;;;6.43;;
42124;SDS011;27787;44.594;11.046;2023-03-14T09:38:03;13.45;;;6.72;;
42124;SDS011;27787;44.594;11.046;2023-03-14T09:40:48;9.05;;;5.53;;
42124;SDS011;27787;44.594;11.046;2023-03-14T09:43:33;13.93;;;5.47;;
42124;SDS011;27787;44.594;11.046;2023-03-14T09:46:19;9.07;;;4.30;;
42124;SDS011;27787;44.594;11.046;2023-03-14T09:49:11;8.68;;;3.83;;
42124;SDS011;27787;44.594;11.046;2023-03-14T09:52:10;15.07;;;4.95;;
42124;SDS011;27787;44.594;11.046;2023-03-14T09:55:13;7.53;;;4.07;;
42124;SDS011;27787;44.594;11.046;2023-03-14T09:58:01;12.20;;;4.30;;
42124;SDS011;27787;44.594;11.046;2023-03-14T10:00:53;11.45;;;4.10;;
42124;SDS011;27787;44.594;11.046;2023-03-14T10:03:40;13.27;;;3.95;;
42124;SDS011;27787;44.594;11.046;2023-03-14T10:06:29;9.93;;;4.25;;
42124;SDS011;27787;44.594;11.046;2023-03-14T10:09:21;11.52;;;3.88;;
42124;SDS011;27787;44.594;11.046;2023-03-14T10:12:08;11.82;;;3.72;;
42124;SDS011;27787;44.594;11.046;2023-03-14T10:14:54;5.63;;;3.55;;
42124;SDS011;27787;44.594;11.046;2023-03-14T10:17:41;8.60;;;3.60;;
42124;SDS011;27787;44.594;11.046;2023-03-14T10:20:34;7.97;;;3.13;;
42124;SDS011;27787;44.594;11.046;2023-03-14T10:23:24;7.28;;;3.67;;
42124;SDS011;27787;44.594;11.046;2023-03-14T10:26:14;8.23;;;3.50;;
42124;SDS011;27787;44.594;11.046;2023-03-14T10:31:57;12.50;;;3.25;;
42124;SDS011;27787;44.594;11.046;2023-03-14T10:34:45;9.30;;;3.83;;
42124;SDS011;27787;44.594;11.046;2023-03-14T10:38:10;9.15;;;3.05;;
42124;SDS011;27787;44.594;11.046;2023-03-14T10:41:00;7.78;;;3.33;;
42124;SDS011;27787;44.594;11.046;2023-03-14T10:43:45;12.13;;;3.60;;
42124;SDS011;27787;44.594;11.046;2023-03-14T10:46:33;8.65;;;3.13;;
42124;SDS011;27787;44.594;11.046;2023-03-14T10:49:36;8.30;;;3.10;;
42124;SDS011;27787;44.594;11.046;2023-03-14T10:52:25;10.27;;;3.35;;
42124;SDS011;27787;44.594;11.046;2023-03-14T10:55:13;7.88;;;3.08;;
42124;SDS011;27787;44.594;11.046;2023-03-14T10:57:57;10.57;;;3.63;;
42124;SDS011;27787;44.594;11.046;2023-03-14T11:00:42;7.70;;;2.92;;
42124;SDS011;27787;44.594;11.046;2023-03-14T11:03:27;10.02;;;2.55;;
42124;SDS011;27787;44.594;11.046;2023-03-14T11:12:08;11.73;;;4.25;;
42124;SDS011;27787;44.594;11.046;2023-03-14T11:15:01;13.27;;;3.65;;
42124;SDS011;27787;44.594;11.046;2023-03-14T11:20:42;6.93;;;3.35;;
42124;SDS011;27787;44.594;11.046;2023-03-14T11:26:48;11.52;;;4.13;;
42124;SDS011;27787;44.594;11.046;2023-03-14T11:29:40;11.55;;;3.85;;
42124;SDS011;27787;44.594;11.046;2023-03-14T11:44:20;8.75;;;2.45;;
42124;SDS011;27787;44.594;11.046;2023-03-14T11:47:15;3.83;;;1.85;;
42124;SDS011;27787;44.594;11.046;2023-03-14T11:50:15;5.63;;;1.98;;
42124;SDS011;27787;44.594;11.046;2023-03-14T11:53:08;5.40;;;2.00;;
42124;SDS011;27787;44.594;11.046;2023-03-14T11:55:57;8.10;;;2.58;;
42124;SDS011;27787;44.594;11.046;2023-03-14T11:58:50;7.32;;;2.30;;
42124;SDS011;27787;44.594;11.046;2023-03-14T12:01:48;8.95;;;3.55;;
42124;SDS011;27787;44.594;11.046;2023-03-14T12:07:29;10.35;;;4.57;;
42124;SDS011;27787;44.594;11.046;2023-03-14T12:10:22;14.55;;;5.25;;
42124;SDS011;27787;44.594;11.046;2023-03-14T12:13:08;15.90;;;5.63;;
42124;SDS011;27787;44.594;11.046;2023-03-14T12:15:55;16.90;;;6.97;;
42124;SDS011;27787;44.594;11.046;2023-03-14T12:18:42;13.52;;;6.13;;
42124;SDS011;27787;44.594;11.046;2023-03-14T12:21:43;14.57;;;6.47;;
42124;SDS011;27787;44.594;11.046;2023-03-14T12:24:34;13.52;;;5.57;;
42124;SDS011;27787;44.594;11.046;2023-03-14T12:30:46;11.82;;;3.85;;
42124;SDS011;27787;44.594;11.046;2023-03-14T12:33:30;8.02;;;3.22;;
42124;SDS011;27787;44.594;11.046;2023-03-14T12:36:20;6.82;;;3.58;;
42124;SDS011;27787;44.594;11.046;2023-03-14T12:42:51;8.93;;;4.50;;
42124;SDS011;27787;44.594;11.046;2023-03-14T12:45:44;8.35;;;4.53;;
42124;SDS011;27787;44.594;11.046;2023-03-14T12:49:04;15.25;;;4.57;;
42124;SDS011;27787;44.594;11.046;2023-03-14T12:51:54;12.52;;;4.45;;
42124;SDS011;27787;44.594;11.046;2023-03-14T12:54:45;14.77;;;3.90;;
42124;SDS011;27787;44.594;11.046;2023-03-14T12:57:42;10.02;;;4.68;;
42124;SDS011;27787;44.594;11.046;2023-03-14T13:00:33;9.35;;;4.93;;
42124;SDS011;27787;44.594;11.046;2023-03-14T13:03:20;9.07;;;5.63;;
42124;SDS011;27787;44.594;11.046;2023-03-14T13:06:09;10.77;;;4.80;;
42124;SDS011;27787;44.594;11.046;2023-03-14T13:08:55;8.13;;;4.50;;
42124;SDS011;27787;44.594;11.046;2023-03-14T13:14:30;14.98;;;5.00;;
42124;SDS011;27787;44.594;11.046;2023-03-14T13:17:16;11.18;;;5.25;;
42124;SDS011;27787;44.594;11.046;2023-03-14T13:20:11;10.48;;;5.00;;
42124;SDS011;27787;44.594;11.046;2023-03-14T13:23:00;10.23;;;4.38;;
42124;SDS011;27787;44.594;11.046;2023-03-14T13:25:44;12.15;;;4.38;;
42124;SDS011;27787;44.594;11.046;2023-03-14T13:28:29;10.43;;;4.45;;
42124;SDS011;27787;44.594;11.046;2023-03-14T13:31:20;11.05;;;3.88;;
42124;SDS011;27787;44.594;11.046;2023-03-14T13:34:09;5.93;;;3.42;;
42124;SDS011;27787;44.594;11.046;2023-03-14T13:36:55;6.45;;;3.55;;
42124;SDS011;27787;44.594;11.046;2023-03-14T13:39:40;8.77;;;3.95;;
42124;SDS011;27787;44.594;11.046;2023-03-14T13:42:25;12.27;;;4.00;;
42124;SDS011;27787;44.594;11.046;2023-03-14T13:45:12;10.18;;;4.35;;
42124;SDS011;27787;44.594;11.046;2023-03-14T13:47:57;8.88;;;3.60;;
42124;SDS011;27787;44.594;11.046;2023-03-14T13:50:51;8.05;;;4.30;;
42124;SDS011;27787;44.594;11.046;2023-03-14T13:53:43;11.80;;;4.78;;
42124;SDS011;27787;44.594;11.046;2023-03-14T13:56:29;11.00;;;4.70;;
42124;SDS011;27787;44.594;11.046;2023-03-14T13:59:23;8.25;;;4.20;;
42124;SDS011;27787;44.594;11.046;2023-03-14T14:02:13;7.45;;;4.78;;
42124;SDS011;27787;44.594;11.046;2023-03-14T14:04:58;9.20;;;4.38;;
42124;SDS011;27787;44.594;11.046;2023-03-14T14:07:43;8.25;;;4.15;;
42124;SDS011;27787;44.594;11.046;2023-03-14T14:10:28;7.95;;;4.32;;
42124;SDS011;27787;44.594;11.046;2023-03-14T14:13:14;8.02;;;4.05;;
42124;SDS011;27787;44.594;11.046;2023-03-14T14:16:03;11.77;;;4.32;;
42124;SDS011;27787;44.594;11.046;2023-03-14T14:18:48;5.50;;;3.42;;
42124;SDS011;27787;44.594;11.046;2023-03-14T14:21:33;7.90;;;3.80;;
42124;SDS011;27787;44.594;11.046;2023-03-14T14:24:17;10.32;;;4.43;;
42124;SDS011;27787;44.594;11.046;2023-03-14T14:27:08;7.38;;;4.35;;
42124;SDS011;27787;44.594;11.046;2023-03-14T14:33:15;7.53;;;4.25;;
42124;SDS011;27787;44.594;11.046;2023-03-14T14:36:02;6.38;;;3.65;;
42124;SDS011;27787;44.594;11.046;2023-03-14T14:38:50;8.45;;;4.55;;
42124;SDS011;27787;44.594;11.046;2023-03-14T14:41:39;7.63;;;4.03;;
42124;SDS011;27787;44.594;11.046;2023-03-14T14:44:29;7.60;;;3.88;;
42124;SDS011;27787;44.594;11.046;2023-03-14T14:47:16;7.03;;;4.13;;
42124;SDS011;27787;44.594;11.046;2023-03-14T14:50:04;7.78;;;3.90;;
42124;SDS011;27787;44.594;11.046;2023-03-14T14:52:48;9.77;;;3.90;;
42124;SDS011;27787;44.594;11.046;2023-03-14T14:55:33;7.38;;;3.72;;
42124;SDS011;27787;44.594;11.046;2023-03-14T14:58:24;7.90;;;3.97;;
42124;SDS011;27787;44.594;11.046;2023-03-14T15:04:01;9.20;;;4.47;;
42124;SDS011;27787;44.594;11.046;2023-03-14T15:06:46;9.48;;;4.45;;
42124;SDS011;27787;44.594;11.046;2023-03-14T15:09:32;9.02;;;3.95;;
42124;SDS011;27787;44.594;11.046;2023-03-14T15:12:16;8.30;;;4.05;;
42124;SDS011;27787;44.594;11.046;2023-03-14T15:15:00;7.72;;;3.80;;
42124;SDS011;27787;44.594;11.046;2023-03-14T15:17:44;9.38;;;4.55;;
42124;SDS011;27787;44.594;11.046;2023-03-14T15:20:29;10.18;;;4.55;;
42124;SDS011;27787;44.594;11.046;2023-03-14T15:23:14;7.10;;;4.18;;
42124;SDS011;27787;44.594;11.046;2023-03-14T15:26:00;8.98;;;4.57;;
42124;SDS011;27787;44.594;11.046;2023-03-14T15:28:44;6.88;;;3.72;;
42124;SDS011;27787;44.594;11.046;2023-03-14T15:34:14;8.10;;;4.57;;
42124;SDS011;27787;44.594;11.046;2023-03-14T15:36:58;5.32;;;3.70;;
42124;SDS011;27787;44.594;11.046;2023-03-14T15:39:42;7.20;;;3.47;;
42124;SDS011;27787;44.594;11.046;2023-03-14T15:42:27;10.00;;;4.57;;
42124;SDS011;27787;44.594;11.046;2023-03-14T15:45:11;7.10;;;3.45;;
42124;SDS011;27787;44.594;11.046;2023-03-14T15:47:56;7.75;;;3.85;;
42124;SDS011;27787;44.594;11.046;2023-03-14T15:50:40;7.90;;;4.63;;
42124;SDS011;27787;44.594;11.046;2023-03-14T15:53:24;9.10;;;5.05;;
42124;SDS011;27787;44.594;11.046;2023-03-14T15:56:12;6.72;;;3.90;;
42124;SDS011;27787;44.594;11.046;2023-03-14T15:58:58;9.43;;;4.47;;
42124;SDS011;27787;44.594;11.046;2023-03-14T16:01:42;7.25;;;4.07;;
42124;SDS011;27787;44.594;11.046;2023-03-14T16:04:26;5.78;;;3.80;;
42124;SDS011;27787;44.594;11.046;2023-03-14T16:07:10;9.02;;;4.45;;
42124;SDS011;27787;44.594;11.046;2023-03-14T16:09:54;12.23;;;4.72;;
42124;SDS011;27787;44.594;11.046;2023-03-14T16:12:38;9.23;;;4.40;;
42124;SDS011;27787;44.594;11.046;2023-03-14T16:15:23;7.95;;;4.35;;
42124;SDS011;27787;44.594;11.046;2023-03-14T16:18:07;10.02;;;4.05;;
42124;SDS011;27787;44.594;11.046;2023-03-14T16:20:52;7.05;;;4.00;;
42124;SDS011;27787;44.594;11.046;2023-03-14T16:23:41;7.15;;;4.07;;
42124;SDS011;27787;44.594;11.046;2023-03-14T16:26:25;7.30;;;4.07;;
42124;SDS011;27787;44.594;11.046;2023-03-14T16:29:09;10.50;;;4.43;;
42124;SDS011;27787;44.594;11.046;2023-03-14T16:31:54;8.68;;;4.22;;
42124;SDS011;27787;44.594;11.046;2023-03-14T16:34:38;15.30;;;4.00;;
42124;SDS011;27787;44.594;11.046;2023-03-14T16:37:25;8.20;;;3.97;;
42124;SDS011;27787;44.594;11.046;2023-03-14T16:40:10;10.25;;;4.20;;
42124;SDS011;27787;44.594;11.046;2023-03-14T16:42:55;6.63;;;4.22;;
42124;SDS011;27787;44.594;11.046;2023-03-14T16:45:39;7.28;;;4.18;;
42124;SDS011;27787;44.594;11.046;2023-03-14T16:48:22;9.60;;;4.60;;
42124;SDS011;27787;44.594;11.046;2023-03-14T16:51:07;10.25;;;5.60;;
42124;SDS011;27787;44.594;11.046;2023-03-14T16:53:52;10.65;;;5.32;;
42124;SDS011;27787;44.594;11.046;2023-03-14T16:56:36;13.88;;;6.22;;
42124;SDS011;27787;44.594;11.046;2023-03-14T16:59:21;11.43;;;6.05;;
42124;SDS011;27787;44.594;11.046;2023-03-14T17:02:05;10.65;;;5.43;;
42124;SDS011;27787;44.594;11.046;2023-03-14T17:04:50;13.15;;;5.43;;
42124;SDS011;27787;44.594;11.046;2023-03-14T17:07:34;8.40;;;4.85;;
42124;SDS011;27787;44.594;11.046;2023-03-14T17:10:18;10.73;;;4.90;;
42124;SDS011;27787;44.594;11.046;2023-03-14T17:13:02;12.75;;;5.50;;
42124;SDS011;27787;44.594;11.046;2023-03-14T17:15:51;11.20;;;5.80;;
42124;SDS011;27787;44.594;11.046;2023-03-14T17:18:36;13.10;;;5.55;;
42124;SDS011;27787;44.594;11.046;2023-03-14T17:21:21;9.57;;;5.63;;